Time;durP1;ratioP1;P1;durP2;ratioP2;P2;SDS_P1;SDS_P2;PMS_P1;PMS_P2;Temp;Humidity;BMP_temperature;BMP_pressure;BME280_temperature;BME280_humidity;BME280_pressure;Samples;Min_cycle;Max_cycle;Signal;HPM_P1;HPM_P2
2023/11/07 00:01:22;;;;;;;2.00;1.03;;;6.80;40.00;;;;;;4997098;28;21111;-69
2023/11/07 00:03:47;;;;;;;2.20;1.00;;;6.80;39.60;;;;;;5014881;28;20546;-69
2023/11/07 00:06:13;;;;;;;2.40;1.20;;;6.80;39.40;;;;;;5014851;28;20178;-68
2023/11/07 00:08:38;;;;;;;2.50;0.90;;;6.80;37.90;;;;;;4997253;28;20177;-69
2023/11/07 00:11:04;;;;;;;5.83;1.30;;;6.90;37.90;;;;;;5014732;28;20590;-69
2023/11/07 00:13:30;;;;;;;1.97;0.87;;;7.00;36.90;;;;;;5014504;28;20214;-69
2023/11/07 00:15:55;;;;;;;4.73;0.90;;;7.10;34.50;;;;;;5014636;28;20792;-69
2023/11/07 00:18:21;;;;;;;1.90;0.77;;;7.10;34.10;;;;;;5014451;28;20190;-69
2023/11/07 00:20:46;;;;;;;2.10;0.80;;;7.20;32.80;;;;;;5014385;28;20201;-69
2023/11/07 00:23:13;;;;;;;2.20;0.90;;;7.20;31.70;;;;;;5014320;28;20669;-69
2023/11/07 00:25:39;;;;;;;5.57;0.93;;;7.30;31.30;;;;;;5014482;28;20668;-69
2023/11/07 00:28:05;;;;;;;1.93;0.80;;;7.30;29.80;;;;;;4997111;28;20805;-69
2023/11/07 00:30:32;;;;;;;3.10;0.80;;;7.30;29.80;;;;;;4996706;28;20424;-69
2023/11/07 00:32:57;;;;;;;1.80;0.73;;;7.40;29.80;;;;;;4996419;28;20202;-69
2023/11/07 00:35:23;;;;;;;1.87;0.73;;;7.50;30.00;;;;;;5014227;28;20407;-68
2023/11/07 00:37:50;;;;;;;3.83;1.00;;;7.50;28.40;;;;;;4996861;28;20588;-69
2023/11/07 00:40:16;;;;;;;2.50;1.00;;;7.60;28.20;;;;;;5012793;28;20212;-69
2023/11/07 00:42:42;;;;;;;2.83;1.03;;;7.60;27.70;;;;;;4996271;28;20844;-69
2023/11/07 00:45:08;;;;;;;4.63;1.20;;;7.60;28.00;;;;;;5014092;28;20705;-69
2023/11/07 00:47:34;;;;;;;3.70;0.90;;;7.50;27.10;;;;;;5014092;28;20400;-69
2023/11/07 00:50:00;;;;;;;2.90;1.40;;;7.50;27.50;;;;;;5014438;28;20486;-69
2023/11/07 00:52:26;;;;;;;2.00;0.90;;;7.50;27.10;;;;;;5013812;28;20419;-67
2023/11/07 00:54:52;;;;;;;4.57;0.70;;;7.50;27.50;;;;;;5013827;28;20436;-68
2023/11/07 00:57:17;;;;;;;2.30;1.10;;;7.50;27.20;;;;;;5013882;28;20261;-67
2023/11/07 00:59:43;;;;;;;1.60;0.60;;;7.50;27.20;;;;;;5013754;28;20203;-67
2023/11/07 01:02:08;;;;;;;2.20;0.97;;;7.40;27.90;;;;;;4996013;28;20177;-67
2023/11/07 01:04:34;;;;;;;3.17;0.90;;;7.40;27.40;;;;;;5013701;28;20204;-69
2023/11/07 01:06:59;;;;;;;2.20;0.90;;;7.40;27.90;;;;;;5013302;28;20194;-69
2023/11/07 01:09:25;;;;;;;2.70;0.93;;;7.30;28.10;;;;;;5013211;28;20753;-67
2023/11/07 01:11:50;;;;;;;2.10;1.50;;;7.20;28.20;;;;;;5013447;28;20219;-69
2023/11/07 01:14:16;;;;;;;2.83;0.70;;;7.10;29.30;;;;;;5013323;28;20257;-69
2023/11/07 01:16:41;;;;;;;2.10;0.97;;;7.00;29.70;;;;;;5013386;28;20263;-67
2023/11/07 01:19:07;;;;;;;2.17;0.70;;;6.90;30.50;;;;;;5013416;28;20188;-67
2023/11/07 01:21:32;;;;;;;4.17;1.30;;;6.80;31.80;;;;;;5013469;28;20183;-67
2023/11/07 01:23:58;;;;;;;2.70;0.77;;;6.80;33.40;;;;;;5013448;28;20581;-67
2023/11/07 01:26:24;;;;;;;2.00;0.80;;;;;;;;;;4995714;28;20222;-69
2023/11/07 01:28:50;;;;;;;1.70;0.80;;;;;;;;;;5013266;28;20578;-69
2023/11/07 01:31:16;;;;;;;2.90;0.90;;;6.50;22.00;;;;;;5013042;28;20412;-68
2023/11/07 01:33:41;;;;;;;2.00;0.83;;;6.40;14.30;;;;;;5013379;28;20430;-68
2023/11/07 01:36:10;;;;;;;2.43;1.13;;;6.40;15.60;;;;;;5013084;28;20183;-68
2023/11/07 01:38:36;;;;;;;4.83;1.20;;;6.30;15.80;;;;;;5013206;28;20605;-68
2023/11/07 01:41:01;;;;;;;2.70;0.97;;;6.30;16.40;;;;;;5012747;28;20873;-68
2023/11/07 01:43:28;;;;;;;2.73;1.10;;;6.30;16.80;;;;;;5013636;28;20500;-69
2023/11/07 01:45:59;;;;;;;2.60;1.03;;;6.20;16.70;;;;;;5014532;28;20230;-68
2023/11/07 01:48:25;;;;;;;3.57;0.97;;;6.30;16.70;;;;;;5013361;28;20390;-67
2023/11/07 01:50:51;;;;;;;1.83;0.90;;;6.30;16.70;;;;;;5012826;28;20415;-68
2023/11/07 01:53:18;;;;;;;3.60;0.90;;;6.30;16.40;;;;;;5013084;28;20811;-68
2023/11/07 01:55:44;;;;;;;5.67;1.23;;;6.20;16.70;;;;;;5012768;28;20204;-68
2023/11/07 01:58:11;;;;;;;4.20;1.70;;;6.20;16.10;;;;;;5012841;28;20958;-68
2023/11/07 02:00:39;;;;;;;1.70;0.80;;;6.20;16.70;;;;;;5012738;28;20458;-68
2023/11/07 02:03:05;;;;;;;2.33;0.80;;;6.20;17.10;;;;;;5012745;28;20489;-68
2023/11/07 02:05:31;;;;;;;2.03;0.80;;;6.10;17.20;;;;;;4995181;28;20943;-67
2023/11/07 02:07:58;;;;;;;4.47;1.67;;;6.10;17.40;;;;;;5012946;28;20942;-68
2023/11/07 02:10:24;;;;;;;2.67;0.70;;;6.00;18.30;;;;;;5012949;28;20179;-68
2023/11/07 02:12:49;;;;;;;2.00;0.80;;;6.00;18.60;;;;;;5012555;28;20431;-68
2023/11/07 02:15:23;;;;;;;1.77;0.80;;;6.00;19.00;;;;;;4994856;28;20183;-68
2023/11/07 02:17:50;;;;;;;3.50;1.10;;;6.00;19.10;;;;;;5012426;28;20204;-68
2023/11/07 02:20:18;;;;;;;2.87;1.40;;;5.90;19.80;;;;;;5011473;28;21042;-67
2023/11/07 02:22:50;;;;;;;3.03;1.50;;;5.80;20.00;;;;;;5012287;28;20415;-68
2023/11/07 02:25:18;;;;;;;3.90;1.40;;;5.80;20.50;;;;;;4994689;28;20426;-68
2023/11/07 02:27:43;;;;;;;3.60;1.60;;;5.90;21.10;;;;;;5012240;28;20415;-66
2023/11/07 02:30:12;;;;;;;2.23;0.90;;;6.00;20.30;;;;;;5012159;28;20414;-67
2023/11/07 02:32:39;;;;;;;2.33;0.83;;;5.90;19.80;;;;;;5012125;28;20241;-68
2023/11/07 02:35:05;;;;;;;3.30;1.37;;;5.90;20.10;;;;;;5012394;28;20513;-67
2023/11/07 02:37:31;;;;;;;1.83;0.83;;;5.90;20.70;;;;;;5012794;28;20450;-67
2023/11/07 02:39:56;;;;;;;3.30;0.80;;;6.10;20.00;;;;;;5011139;28;20579;-68
2023/11/07 02:42:22;;;;;;;1.50;0.60;;;6.20;18.90;;;;;;5012462;28;20509;-68
2023/11/07 02:44:48;;;;;;;3.47;1.63;;;6.30;18.30;;;;;;5011428;28;20192;-68
2023/11/07 02:47:14;;;;;;;1.63;0.90;;;6.30;18.00;;;;;;5012096;28;20415;-67
2023/11/07 02:49:39;;;;;;;3.93;1.07;;;6.40;16.80;;;;;;5010827;28;20649;-67
2023/11/07 02:52:05;;;;;;;2.07;0.80;;;6.40;16.80;;;;;;5012040;28;20202;-68
2023/11/07 02:54:30;;;;;;;2.13;0.93;;;6.50;16.80;;;;;;5012576;28;20211;-67
2023/11/07 02:56:56;;;;;;;2.27;1.40;;;6.60;16.30;;;;;;5012243;28;20179;-68
2023/11/07 02:59:21;;;;;;;2.00;0.83;;;6.60;15.80;;;;;;5012541;28;20183;-67
2023/11/07 03:01:50;;;;;;;2.43;0.87;;;6.60;15.40;;;;;;5012391;28;20172;-68
2023/11/07 03:04:16;;;;;;;1.90;0.77;;;6.50;16.00;;;;;;5012038;28;20673;-68
2023/11/07 03:06:41;;;;;;;1.63;0.70;;;6.40;16.80;;;;;;5012418;28;20423;-68
2023/11/07 03:09:07;;;;;;;5.43;1.50;;;6.50;16.80;;;;;;5011735;28;20626;-67
2023/11/07 03:11:32;;;;;;;1.93;0.93;;;6.50;16.50;;;;;;5011527;28;20192;-67
2023/11/07 03:13:58;;;;;;;1.70;0.60;;;6.50;16.70;;;;;;5138171;23;20600;-70
2023/11/07 03:16:23;;;;;;;2.87;1.00;;;6.50;16.80;;;;;;4991203;28;20202;-71
2023/11/07 03:18:49;;;;;;;1.70;0.80;;;6.60;16.00;;;;;;4974864;28;20462;-71
2023/11/07 03:21:15;;;;;;;1.90;0.90;;;6.60;15.60;;;;;;4991901;28;20292;-70
2023/11/07 03:23:40;;;;;;;1.80;0.87;;;6.60;15.40;;;;;;4992200;28;20193;-70
2023/11/07 03:26:07;;;;;;;2.23;1.00;;;6.50;16.00;;;;;;4990917;28;20181;-71
2023/11/07 03:28:33;;;;;;;2.37;1.20;;;6.40;16.80;;;;;;4990746;28;20227;-70
2023/11/07 03:30:58;;;;;;;3.10;1.00;;;6.30;17.30;;;;;;4975583;28;20819;-70
2023/11/07 03:33:25;;;;;;;3.10;1.10;;;6.40;17.60;;;;;;4995954;28;20242;-72
2023/11/07 03:35:50;;;;;;;2.70;1.13;;;6.40;16.80;;;;;;4994661;28;20628;-71
2023/11/07 03:38:16;;;;;;;3.23;1.40;;;6.30;16.70;;;;;;4995842;28;20412;-71
2023/11/07 03:40:41;;;;;;;1.90;0.90;;;6.20;17.90;;;;;;4994542;28;20688;-71
2023/11/07 03:43:08;;;;;;;4.90;1.10;;;6.10;18.00;;;;;;4995537;28;20318;-71
2023/11/07 03:45:33;;;;;;;2.30;1.43;;;6.00;19.00;;;;;;4995887;28;20553;-70
2023/11/07 03:47:59;;;;;;;3.10;1.03;;;6.00;19.80;;;;;;4995754;28;20426;-70
2023/11/07 03:50:24;;;;;;;2.00;1.20;;;5.90;20.70;;;;;;4995695;28;20184;-69
2023/11/07 03:52:51;;;;;;;1.60;0.63;;;5.90;20.70;;;;;;4995343;28;20208;-70
2023/11/07 03:55:16;;;;;;;1.90;0.90;;;5.80;21.20;;;;;;4994336;28;20446;-70
2023/11/07 03:57:42;;;;;;;2.00;1.10;;;5.70;21.40;;;;;;4994222;28;21017;-70
2023/11/07 04:00:10;;;;;;;2.30;1.03;;;5.70;21.90;;;;;;4994047;28;20462;-71
2023/11/07 04:02:36;;;;;;;3.10;1.00;;;5.60;22.60;;;;;;4978110;28;20235;-71
2023/11/07 04:05:03;;;;;;;4.73;1.30;;;5.60;23.30;;;;;;4995508;28;20841;-70
2023/11/07 04:07:29;;;;;;;2.20;0.90;;;5.50;23.60;;;;;;4977846;28;20478;-69
2023/11/07 04:09:55;;;;;;;2.23;1.10;;;5.50;24.20;;;;;;4995472;28;20419;-70
2023/11/07 04:12:21;;;;;;;2.30;1.30;;;5.50;24.20;;;;;;4994990;28;20446;-71
2023/11/07 04:14:47;;;;;;;3.70;1.40;;;5.50;24.60;;;;;;4993938;28;21033;-68
2023/11/07 04:17:13;;;;;;;2.90;1.00;;;5.40;24.50;;;;;;4977923;28;20515;-69
2023/11/07 04:19:38;;;;;;;3.77;1.60;;;5.40;24.50;;;;;;4994020;28;20481;-70
2023/11/07 04:22:04;;;;;;;2.10;1.50;;;5.30;24.90;;;;;;4995275;28;20171;-71
2023/11/07 04:24:30;;;;;;;1.93;0.97;;;5.30;25.60;;;;;;4995567;28;20576;-70
2023/11/07 04:26:57;;;;;;;2.23;1.00;;;5.30;26.10;;;;;;4995154;28;20639;-69
2023/11/07 04:29:23;;;;;;;1.73;0.87;;;5.30;26.20;;;;;;4993634;28;20469;-70
2023/11/07 04:31:49;;;;;;;1.87;1.00;;;5.30;26.20;;;;;;4993473;28;20423;-70
2023/11/07 04:34:14;;;;;;;3.30;1.17;;;5.30;25.90;;;;;;4993540;28;20440;-70
2023/11/07 04:36:40;;;;;;;2.43;1.30;;;5.30;26.30;;;;;;4994834;28;20419;-70
2023/11/07 04:39:07;;;;;;;1.80;1.00;;;5.30;26.20;;;;;;4977338;28;20180;-69
2023/11/07 04:41:36;;;;;;;3.03;1.23;;;5.30;26.00;;;;;;4994194;28;20200;-70
2023/11/07 04:44:02;;;;;;;2.07;1.37;;;5.30;25.90;;;;;;4993804;28;20442;-69
2023/11/07 04:46:28;;;;;;;4.00;1.57;;;5.30;26.20;;;;;;4977147;28;20418;-70
2023/11/07 04:48:54;;;;;;;2.83;1.87;;;5.30;26.40;;;;;;4994681;28;20603;-70
2023/11/07 04:51:20;;;;;;;6.53;1.73;;;5.30;25.70;;;;;;4993235;28;20180;-72
2023/11/07 04:53:47;;;;;;;2.10;1.47;;;5.30;25.90;;;;;;4994145;28;20437;-70
2023/11/07 04:56:13;;;;;;;2.33;1.50;;;5.30;26.10;;;;;;4976841;28;20968;-71
2023/11/07 04:58:39;;;;;;;2.23;1.43;;;5.30;26.20;;;;;;4994332;28;20419;-70
2023/11/07 05:01:07;;;;;;;2.50;1.70;;;5.40;25.80;;;;;;4993998;28;20455;-70
2023/11/07 05:03:33;;;;;;;2.90;1.60;;;5.30;25.80;;;;;;4992862;28;20204;-70
2023/11/07 05:05:59;;;;;;;2.50;1.63;;;5.40;25.30;;;;;;4993022;28;20511;-70
2023/11/07 05:08:24;;;;;;;2.23;1.40;;;5.30;26.00;;;;;;4992877;28;20800;-70
2023/11/07 05:10:50;;;;;;;4.30;1.87;;;5.30;25.40;;;;;;4994008;28;20422;-71
2023/11/07 05:13:16;;;;;;;2.53;1.30;;;5.30;26.00;;;;;;4992611;28;20207;-70
2023/11/07 05:15:43;;;;;;;4.80;1.70;;;5.30;26.50;;;;;;4992762;28;20311;-70
2023/11/07 05:18:12;;;;;;;1.93;1.30;;;5.30;26.40;;;;;;4993923;28;20926;-70
2023/11/07 05:20:38;;;;;;;2.43;1.33;;;5.30;26.40;;;;;;4993727;28;20466;-70
2023/11/07 05:23:05;;;;;;;5.00;1.93;;;5.30;26.20;;;;;;4993549;28;20447;-69
2023/11/07 05:25:32;;;;;;;2.93;1.70;;;5.30;26.50;;;;;;4976331;28;20422;-69
2023/11/07 05:27:59;;;;;;;2.53;1.63;;;5.30;26.50;;;;;;4992678;28;20494;-70
2023/11/07 05:30:24;;;;;;;2.37;1.33;;;5.30;27.00;;;;;;4993926;28;20427;-69
2023/11/07 05:32:51;;;;;;;2.40;1.33;;;5.30;27.50;;;;;;4992422;28;20470;-70
2023/11/07 05:35:17;;;;;;;3.23;1.47;;;5.30;27.50;;;;;;4992694;28;20192;-70
2023/11/07 05:37:44;;;;;;;2.20;1.40;;;5.30;27.60;;;;;;4992402;28;20928;-69
2023/11/07 05:40:13;;;;;;;2.73;1.53;;;5.20;28.50;;;;;;4993717;28;20221;-71
2023/11/07 05:42:42;;;;;;;2.50;1.50;;;5.30;28.50;;;;;;4976117;28;20477;-69
2023/11/07 05:45:10;;;;;;;2.60;1.47;;;5.40;28.60;;;;;;4992302;28;20445;-70
2023/11/07 05:47:36;;;;;;;4.13;1.90;;;5.50;28.60;;;;;;4976564;28;20881;-70
2023/11/07 05:50:05;;;;;;;2.60;1.57;;;5.70;26.70;;;;;;4992105;28;20773;-71
2023/11/07 05:52:32;;;;;;;3.33;1.70;;;5.80;26.10;;;;;;4993364;28;21093;-68
2023/11/07 05:55:00;;;;;;;2.93;1.50;;;5.90;24.80;;;;;;4975809;28;20486;-71
2023/11/07 05:57:25;;;;;;;1.97;1.13;;;6.00;24.10;;;;;;4993260;28;20424;-71
2023/11/07 05:59:51;;;;;;;5.30;1.57;;;6.00;23.40;;;;;;4991888;28;20463;-70
2023/11/07 06:02:17;;;;;;;3.23;1.73;;;6.10;21.70;;;;;;4975668;28;20419;-71
2023/11/07 06:04:43;;;;;;;2.87;1.43;;;6.10;21.30;;;;;;4993096;28;20435;-70
2023/11/07 06:07:09;;;;;;;5.27;1.63;;;6.10;21.70;;;;;;4992010;28;20177;-71
2023/11/07 06:09:35;;;;;;;3.53;1.67;;;6.00;21.50;;;;;;4992088;28;20463;-71
2023/11/07 06:12:01;;;;;;;4.43;2.17;;;6.00;22.20;;;;;;4993065;28;20427;-70
2023/11/07 06:14:27;;;;;;;4.70;2.43;;;5.90;22.20;;;;;;4992847;28;20220;-70
2023/11/07 06:16:53;;;;;;;5.17;3.60;;;5.90;22.50;;;;;;4991816;28;20275;-70
2023/11/07 06:19:19;;;;;;;5.23;2.27;;;6.00;21.90;;;;;;4991511;28;20184;-70
2023/11/07 06:21:45;;;;;;;2.37;1.20;;;6.00;20.80;;;;;;4991644;28;20420;-70
2023/11/07 06:24:11;;;;;;;3.60;1.70;;;6.00;20.80;;;;;;4992654;28;20436;-71
2023/11/07 06:26:36;;;;;;;3.47;1.83;;;6.10;20.30;;;;;;4993094;28;20177;-72
2023/11/07 06:29:02;;;;;;;2.93;1.50;;;6.00;19.60;;;;;;4991510;28;20676;-72
2023/11/07 06:31:27;;;;;;;2.90;1.90;;;6.00;19.60;;;;;;4975250;28;20189;-70
2023/11/07 06:33:54;;;;;;;4.20;2.20;;;6.10;19.70;;;;;;4992732;28;20210;-72
2023/11/07 06:36:19;;;;;;;3.20;1.70;;;6.00;19.80;;;;;;4993072;28;20186;-70
2023/11/07 06:38:45;;;;;;;2.80;1.40;;;6.10;20.20;;;;;;4992740;28;20519;-69
2023/11/07 06:41:11;;;;;;;3.23;1.67;;;6.00;19.00;;;;;;4991387;28;20216;-70
2023/11/07 06:43:39;;;;;;;4.30;1.87;;;6.10;19.10;;;;;;4992654;28;20431;-70
2023/11/07 06:46:04;;;;;;;4.60;1.90;;;6.20;18.50;;;;;;4975150;28;20999;-69
2023/11/07 06:48:30;;;;;;;3.93;1.87;;;6.20;18.10;;;;;;4991243;28;20464;-69
2023/11/07 06:51:01;;;;;;;4.37;2.13;;;6.20;18.30;;;;;;4992090;28;20223;-69
2023/11/07 06:53:28;;;;;;;3.03;2.13;;;6.20;18.70;;;;;;4992301;28;20266;-69
2023/11/07 06:55:54;;;;;;;3.47;2.23;;;6.30;19.60;;;;;;4992468;28;20555;-69
2023/11/07 06:58:20;;;;;;;8.40;2.53;;;6.40;20.00;;;;;;4992666;28;20439;-70
2023/11/07 07:00:46;;;;;;;2.50;1.63;;;6.70;17.60;;;;;;4974940;28;20680;-70
2023/11/07 07:03:11;;;;;;;2.40;1.40;;;6.90;15.90;;;;;;4974837;28;20444;-70
2023/11/07 07:05:37;;;;;;;2.20;1.20;;;7.10;14.60;;;;;;4991817;28;20200;-70
2023/11/07 07:08:03;;;;;;;2.60;1.93;;;7.30;12.30;;;;;;4975211;28;20190;-70
2023/11/07 07:10:29;;;;;;;3.17;1.50;;;7.60;12.10;;;;;;4991275;28;20187;-70
2023/11/07 07:12:54;;;;;;;3.57;2.10;;;7.70;11.40;;;;;;4992122;28;20471;-71
2023/11/07 07:15:20;;;;;;;3.67;2.57;;;7.70;10.10;;;;;;4992915;28;20234;-70
2023/11/07 07:17:46;;;;;;;4.07;2.10;;;7.80;9.50;;;;;;4975468;28;20187;-70
2023/11/07 07:20:11;;;;;;;5.40;2.40;;;7.80;9.00;;;;;;4992339;28;20208;-70
2023/11/07 07:22:41;;;;;;;4.07;2.23;;;7.80;8.90;;;;;;4974645;28;20180;-70
2023/11/07 07:25:08;;;;;;;3.80;2.87;;;7.70;7.10;;;;;;4991060;28;20207;-70
2023/11/07 07:27:34;;;;;;;2.67;1.43;;;7.70;8.20;;;;;;4974791;28;20448;-70
2023/11/07 07:30:06;;;;;;;4.00;1.80;;;7.80;9.00;;;;;;4972830;28;20809;-71
2023/11/07 07:32:35;;;;;;;3.07;1.43;;;7.80;9.00;;;;;;4986229;28;20453;-71
2023/11/07 07:35:01;;;;;;;2.93;1.50;;;8.00;6.50;;;;;;4991997;28;20478;-71
2023/11/07 07:37:28;;;;;;;2.73;1.60;;;8.20;4.80;;;;;;4990645;28;20453;-70
2023/11/07 07:39:53;;;;;;;2.50;1.53;;;8.50;4.60;;;;;;4988206;28;20529;-70
2023/11/07 07:42:19;;;;;;;2.00;1.20;;;8.60;3.80;;;;;;4991609;28;20431;-70
2023/11/07 07:44:45;;;;;;;3.67;1.80;;;8.60;3.30;;;;;;4991886;28;20211;-69
2023/11/07 07:47:11;;;;;;;8.83;2.37;;;8.70;2.00;;;;;;4992161;28;20218;-70
2023/11/07 07:49:39;;;;;;;5.33;1.90;;;8.70;1.50;;;;;;4991948;28;20445;-70
2023/11/07 07:52:09;;;;;;;3.50;1.80;;;8.70;2.20;;;;;;4989699;28;20954;-70
2023/11/07 07:54:37;;;;;;;3.00;1.53;;;8.60;1.90;;;;;;4984881;28;20447;-69
2023/11/07 07:57:05;;;;;;;1.87;1.00;;;8.60;2.00;;;;;;4991237;28;20427;-70
2023/11/07 07:59:31;;;;;;;3.67;1.90;;;8.70;2.00;;;;;;4991777;28;20597;-71
2023/11/07 08:01:57;;;;;;;3.20;1.57;;;8.80;1.00;;;;;;4991837;28;20427;-73
2023/11/07 08:04:25;;;;;;;2.27;1.27;;;8.90;1.00;;;;;;4991415;28;20442;-70
2023/11/07 08:06:51;;;;;;;2.60;1.43;;;9.00;1.00;;;;;;4976537;28;20195;-69
2023/11/07 08:09:22;;;;;;;4.20;0.93;;;9.00;1.00;;;;;;4992778;28;20456;-69
2023/11/07 08:11:50;;;;;;;2.77;1.30;;;9.00;1.00;;;;;;4989588;28;20440;-70
2023/11/07 08:14:16;;;;;;;2.43;1.00;;;9.10;1.00;;;;;;4990219;28;20475;-71
2023/11/07 08:16:43;;;;;;;3.40;1.47;;;9.30;1.00;;;;;;4992039;28;20416;-70
2023/11/07 08:19:15;;;;;;;2.00;0.93;;;9.30;1.00;;;;;;4994626;28;20447;-69
2023/11/07 08:21:41;;;;;;;2.83;1.47;;;9.50;1.00;;;;;;4995135;28;20473;-70
2023/11/07 08:24:07;;;;;;;4.10;1.30;;;9.60;1.00;;;;;;4996007;28;20808;-69
2023/11/07 08:26:36;;;;;;;2.40;1.40;;;9.70;1.00;;;;;;4995274;28;20416;-69
2023/11/07 08:29:06;;;;;;;1.60;0.80;;;9.90;1.00;;;;;;4994971;28;20454;-69
2023/11/07 08:31:32;;;;;;;1.60;0.80;;;10.10;1.00;;;;;;4978511;28;20527;-69
2023/11/07 08:33:59;;;;;;;3.93;0.83;;;10.20;1.00;;;;;;4984887;28;20459;-69
2023/11/07 08:36:25;;;;;;;2.10;1.10;;;10.30;1.00;;;;;;4979318;28;20546;-69
2023/11/07 08:38:50;;;;;;;2.23;1.10;;;10.50;1.00;;;;;;4977218;28;20502;-70
2023/11/07 08:41:16;;;;;;;3.80;1.43;;;10.60;1.00;;;;;;4994646;28;20208;-70
2023/11/07 08:43:41;;;;;;;4.77;1.40;;;10.70;1.00;;;;;;4977447;28;20196;-70
2023/11/07 08:46:07;;;;;;;3.00;1.40;;;10.90;1.00;;;;;;4994642;28;20187;-70
2023/11/07 08:48:34;;;;;;;3.40;1.10;;;11.10;1.00;;;;;;4994555;28;20178;-69
2023/11/07 08:51:01;;;;;;;2.80;1.33;;;11.20;1.00;;;;;;4994256;28;20207;-70
2023/11/07 08:53:26;;;;;;;3.27;1.00;;;11.40;1.00;;;;;;4993987;28;20423;-70
2023/11/07 08:55:52;;;;;;;2.50;1.20;;;11.40;1.00;;;;;;4977038;28;20546;-70
2023/11/07 08:58:18;;;;;;;3.40;1.40;;;11.00;1.00;;;;;;4993144;28;20259;-70
2023/11/07 09:00:44;;;;;;;3.00;1.20;;;11.00;1.00;;;;;;4994292;28;20728;-70
2023/11/07 09:03:10;;;;;;;2.03;1.10;;;11.20;1.00;;;;;;4992803;28;20876;-71
2023/11/07 09:05:36;;;;;;;4.10;1.20;;;11.40;1.00;;;;;;4995030;28;20495;-71
2023/11/07 09:08:04;;;;;;;2.30;0.90;;;11.20;1.00;;;;;;4976908;28;20420;-70
2023/11/07 09:10:32;;;;;;;2.83;0.90;;;11.20;1.00;;;;;;4994339;28;20204;-71
2023/11/07 09:12:58;;;;;;;2.83;1.10;;;11.20;1.00;;;;;;4994173;28;20953;-71
2023/11/07 09:15:25;;;;;;;3.63;0.90;;;11.20;1.00;;;;;;4993137;28;20521;-71
2023/11/07 09:17:52;;;;;;;2.03;0.97;;;11.40;1.00;;;;;;4976772;28;20658;-70
2023/11/07 09:20:18;;;;;;;2.60;1.03;;;11.40;1.00;;;;;;4994138;28;20462;-71
2023/11/07 09:22:44;;;;;;;3.70;0.80;;;11.40;1.00;;;;;;4994215;28;20435;-71
2023/11/07 09:25:11;;;;;;;2.20;1.20;;;11.30;1.00;;;;;;4989919;28;20532;-70
2023/11/07 09:27:37;;;;;;;1.90;0.93;;;11.50;1.00;;;;;;4972305;28;20437;-71
2023/11/07 09:30:08;;;;;;;2.67;1.13;;;11.50;1.00;;;;;;4989148;28;20446;-70
2023/11/07 09:32:38;;;;;;;3.80;1.00;;;11.50;1.00;;;;;;5004888;28;20435;-69
2023/11/07 09:35:07;;;;;;;1.67;0.80;;;11.50;1.00;;;;;;4990203;28;20518;-71
2023/11/07 09:37:39;;;;;;;1.80;0.90;;;11.50;1.00;;;;;;5004755;28;20763;-71
2023/11/07 09:40:17;;;;;;;1.60;0.80;;;11.60;1.00;;;;;;4989568;28;20471;-71
2023/11/07 09:42:46;;;;;;;2.37;1.03;;;11.50;1.00;;;;;;4988141;28;20427;-72
2023/11/07 09:45:18;;;;;;;1.80;0.73;;;11.50;1.00;;;;;;4987894;28;20428;-71
2023/11/07 09:47:49;;;;;;;1.80;0.90;;;11.50;1.00;;;;;;4989655;28;20428;-70
2023/11/07 09:50:23;;;;;;;1.90;0.73;;;11.70;1.00;;;;;;5004890;28;20448;-71
2023/11/07 09:52:50;;;;;;;2.90;1.00;;;11.80;1.00;;;;;;4989639;28;20427;-71
2023/11/07 09:55:16;;;;;;;2.00;0.80;;;11.80;1.00;;;;;;5004070;28;20448;-70
2023/11/07 09:57:55;;;;;;;1.70;0.80;;;12.10;1.00;;;;;;4989065;28;20874;-71
2023/11/07 10:00:23;;;;;;;2.13;1.00;;;12.50;1.00;;;;;;4969689;28;20481;-70
2023/11/07 10:02:50;;;;;;;1.70;0.80;;;12.90;1.00;;;;;;4969870;28;21024;-70
2023/11/07 10:05:19;;;;;;;1.80;0.87;;;12.90;1.00;;;;;;4969831;28;20941;-70
2023/11/07 10:07:49;;;;;;;2.10;0.90;;;12.60;1.00;;;;;;4969696;28;20411;-71
2023/11/07 10:10:16;;;;;;;2.10;1.07;;;12.70;1.00;;;;;;4969616;28;20424;-71
2023/11/07 10:12:43;;;;;;;2.23;1.00;;;12.70;1.00;;;;;;4969941;28;20435;-70
2023/11/07 10:15:19;;;;;;;1.90;0.90;;;12.70;1.00;;;;;;4969454;28;20464;-70
2023/11/07 10:18:01;;;;;;;1.60;0.77;;;13.00;1.00;;;;;;4968311;28;20439;-71
2023/11/07 10:20:31;;;;;;;1.90;1.30;;;13.00;1.00;;;;;;4969820;28;20508;-69
2023/11/07 10:22:58;;;;;;;2.83;1.10;;;13.10;1.00;;;;;;4968959;28;20793;-71
2023/11/07 10:25:34;;;;;;;1.90;1.00;;;13.00;1.00;;;;;;4967525;28;20440;-70
2023/11/07 10:28:02;;;;;;;1.80;1.00;;;12.70;1.00;;;;;;4967802;28;20531;-70
2023/11/07 10:30:45;;;;;;;1.90;0.90;;;12.50;1.00;;;;;;4967436;28;20804;-71
2023/11/07 10:33:12;;;;;;;3.87;1.40;;;12.60;1.00;;;;;;4968830;28;20498;-71
2023/11/07 10:35:55;;;;;;;2.60;1.50;;;12.80;1.00;;;;;;4969640;28;20431;-70
2023/11/07 10:38:24;;;;;;;2.00;1.00;;;13.00;1.00;;;;;;4952139;28;20431;-69
2023/11/07 10:40:50;;;;;;;1.90;1.20;;;12.90;1.00;;;;;;4967500;28;20473;-70
2023/11/07 10:43:35;;;;;;;2.00;0.93;;;12.90;1.00;;;;;;4969119;28;20439;-71
2023/11/07 10:46:05;;;;;;;2.00;1.00;;;13.00;1.00;;;;;;4969659;28;20455;-71
2023/11/07 10:48:35;;;;;;;1.80;1.10;;;13.20;1.00;;;;;;4968923;28;20894;-71
2023/11/07 10:51:05;;;;;;;5.67;1.40;;;13.00;1.00;;;;;;4968529;28;20425;-70
2023/11/07 10:53:34;;;;;;;2.83;1.27;;;13.20;1.00;;;;;;4969675;28;20440;-69
2023/11/07 10:56:00;;;;;;;1.90;1.00;;;13.20;1.00;;;;;;4989007;28;20442;-70
2023/11/07 10:58:32;;;;;;;2.20;1.20;;;13.20;1.00;;;;;;4988191;28;20514;-69
2023/11/07 11:01:03;;;;;;;2.27;1.20;;;13.10;1.00;;;;;;4987979;28;20467;-69
2023/11/07 11:03:33;;;;;;;2.57;1.13;;;13.20;1.00;;;;;;5005305;28;20509;-71
2023/11/07 11:06:02;;;;;;;5.97;1.17;;;13.20;1.00;;;;;;4992620;28;20509;-70
2023/11/07 11:08:30;;;;;;;1.83;1.20;;;13.10;1.00;;;;;;4992357;28;20419;-70
2023/11/07 11:10:57;;;;;;;2.73;1.20;;;13.00;1.00;;;;;;4990965;28;20437;-70
2023/11/07 11:13:26;;;;;;;1.80;0.90;;;12.90;1.00;;;;;;5007183;28;20500;-71
2023/11/07 11:15:53;;;;;;;2.00;1.40;;;12.90;1.00;;;;;;5007454;28;20439;-71
2023/11/07 11:18:28;;;;;;;2.07;1.20;;;13.00;1.00;;;;;;4992121;28;20426;-71
2023/11/07 11:21:16;;;;;;;2.10;1.00;;;12.80;1.00;;;;;;5007258;28;20474;-71
2023/11/07 11:23:59;;;;;;;3.27;1.10;;;12.70;1.00;;;;;;4992329;28;20864;-71
2023/11/07 11:26:47;;;;;;;2.67;1.10;;;12.70;1.00;;;;;;4992319;28;20424;-71
2023/11/07 11:29:26;;;;;;;2.10;1.00;;;12.80;1.00;;;;;;4992062;28;20493;-71
2023/11/07 11:31:52;;;;;;;3.67;1.13;;;12.60;1.00;;;;;;5007624;28;20444;-71
2023/11/07 11:34:25;;;;;;;1.80;1.20;;;12.50;1.00;;;;;;5007238;28;20449;-71
2023/11/07 11:36:59;;;;;;;1.80;1.03;;;12.60;1.00;;;;;;4992547;28;20746;-72
2023/11/07 11:39:33;;;;;;;1.73;1.00;;;12.70;1.00;;;;;;4992241;28;20464;-71
2023/11/07 11:42:09;;;;;;;2.30;1.20;;;12.90;1.00;;;;;;4991864;28;20462;-71
2023/11/07 11:44:36;;;;;;;2.00;0.90;;;12.60;1.00;;;;;;4992147;28;20441;-72
2023/11/07 11:47:03;;;;;;;2.27;1.50;;;12.60;1.00;;;;;;4992002;28;20509;-72
2023/11/07 11:49:29;;;;;;;2.13;1.10;;;12.80;1.00;;;;;;4992103;28;20450;-71
2023/11/07 11:51:56;;;;;;;1.80;1.00;;;12.80;1.00;;;;;;4991741;28;20424;-71
2023/11/07 11:54:24;;;;;;;1.70;0.97;;;12.90;1.00;;;;;;4995792;28;20209;-71
2023/11/07 11:56:50;;;;;;;1.80;0.97;;;13.20;1.00;;;;;;5010729;28;20424;-72
2023/11/07 11:59:19;;;;;;;2.20;1.40;;;13.30;1.00;;;;;;4995898;28;20434;-72
2023/11/07 12:01:59;;;;;;;2.83;1.40;;;13.50;1.00;;;;;;5010490;28;20266;-71
2023/11/07 12:04:32;;;;;;;1.80;1.20;;;13.70;1.00;;;;;;5010481;28;20491;-71
2023/11/07 12:07:10;;;;;;;2.00;1.20;;;13.60;1.00;;;;;;4995832;28;20990;-71
2023/11/07 12:09:49;;;;;;;1.87;1.30;;;13.30;1.00;;;;;;4995600;28;20420;-71
2023/11/07 12:12:16;;;;;;;1.97;1.10;;;13.30;1.00;;;;;;4995182;28;20792;-71
2023/11/07 12:14:59;;;;;;;1.60;0.90;;;13.10;1.00;;;;;;4995139;28;20509;-71
2023/11/07 12:17:40;;;;;;;1.60;0.90;;;13.20;1.00;;;;;;4995135;28;20510;-71
2023/11/07 12:20:08;;;;;;;1.60;0.80;;;13.00;1.00;;;;;;4995040;28;21095;-70
2023/11/07 12:22:34;;;;;;;1.60;0.97;;;12.70;1.00;;;;;;4995105;28;20911;-71
2023/11/07 12:25:07;;;;;;;2.03;0.90;;;12.60;1.00;;;;;;5010205;28;20522;-71
2023/11/07 12:27:35;;;;;;;1.90;1.03;;;12.50;1.00;;;;;;4995147;28;20416;-71
2023/11/07 12:30:12;;;;;;;2.10;1.47;;;12.60;1.00;;;;;;4995015;28;20431;-71
2023/11/07 12:32:38;;;;;;;2.07;1.37;;;12.60;1.00;;;;;;5009687;28;20437;-71
2023/11/07 12:35:19;;;;;;;1.90;1.30;;;12.60;1.00;;;;;;4994938;28;20443;-71
2023/11/07 12:37:46;;;;;;;1.60;0.77;;;12.80;1.00;;;;;;4995252;28;20191;-71
2023/11/07 12:40:13;;;;;;;1.77;0.93;;;12.60;1.00;;;;;;4994982;28;20474;-71
2023/11/07 12:42:39;;;;;;;2.00;1.10;;;12.60;1.00;;;;;;4995146;28;20412;-71
2023/11/07 12:45:06;;;;;;;1.90;1.10;;;12.60;1.00;;;;;;4995096;28;20466;-71
2023/11/07 12:47:33;;;;;;;2.17;1.30;;;12.80;1.00;;;;;;4995063;28;20422;-71
2023/11/07 12:49:59;;;;;;;1.70;0.90;;;12.60;1.00;;;;;;4993673;28;20795;-71
2023/11/07 12:52:24;;;;;;;2.47;1.20;;;12.70;1.00;;;;;;4994343;28;20530;-72
2023/11/07 12:54:50;;;;;;;1.80;0.90;;;12.70;1.00;;;;;;4991190;28;20215;-69
2023/11/07 12:57:16;;;;;;;1.70;0.80;;;12.60;1.00;;;;;;4994282;28;20195;-72
2023/11/07 12:59:58;;;;;;;2.13;0.90;;;12.70;1.00;;;;;;4994101;28;20423;-72